Pineville, MO

3:43 AM CDT on September 02, 2014 (GMT -0500)
Bentonville Municipal-Thaden | Change Station
CLOSE
Current Station
Airport
Location: Bentonville,
Elevation: 1296 ft
Nearby Weather Stations
Active Advisory: Flash Flood Watch

Elev 1296 ft 36.34 °N, 94.22 °W | Updated 8 minutes ago

Overcast
Overcast
72 °F
Feels Like 72 °F
N
13
Wind Variable Wind from North
Gusts 28 mph

Today
High -- | Low -- °F
--% Chance of Precip.
Yesterday
High -- | Low -- °F
Precip. -- in
6:49 AM 7:44 PM
Waxing Crescent, 49% visible
Pressure 30.01 in
Visibility 3.0 miles
Clouds Few 900 ft
Scattered Clouds 1900 ft
Overcast 6000 ft
Dew Point 66 °F
Humidity 83%
Rainfall 0.00 in
Snow Depth Not available.
UV 0 out of 12
Pollen 11.40 out of 12
Air Quality Not available.
Flu Activity Not available.
METAR KVBT 020835Z AUTO 36011G24KT 3SM VCTS FEW009 SCT019 OVC060 22/19 A3001 RMK AO1 LTG DSNT N TSB0759

More Conditions Fewer Conditions

Pressure 30.01 in
Visibility 3.0 miles
Clouds Few 900 ft
Scattered Clouds 1900 ft
Overcast 6000 ft
Dew Point 66 °F
Humidity 83%
Rainfall 0.00 in
Snow Depth Not available.
UV 0 out of 12
Pollen 11.40 out of 12
Air Quality Not available.
Flu Activity Not available.
METAR KVBT 020835Z AUTO 36011G24KT 3SM VCTS FEW009 SCT019 OVC060 22/19 A3001 RMK AO1 LTG DSNT N TSB0759

More Conditions Fewer Conditions

10-Day Weather Forecast

Almanac

Astronomy

Sep. 02, 2014 Rise Set
Actual Time 6:49 AM CDT 7:44 PM CDT
Civil Twilight 6:23 AM CDT 8:10 PM CDT
Nautical Twilight 5:51 AM CDT 8:41 PM CDT
Astronomical Twilight 5:19 AM CDT 9:13 PM CDT
Moon 2:23 PM CDT No Moon Set
Length of Visible Light 13h 47m
Length of Day
12h 54m
Tomorrow will be 2m 15s shorter.
Waxing Crescent, 49% of the Moon is Illuminated
Today
Waxing Crescent
Sep 2
First Quarter
Sep 8
Full
Sep 15
Last Quarter
Sep 24
New

Today's Extremes

State Highs State Lows

Community

WunderPhotos

Upload Photos

1,749,587 photos uploaded!

WunderBlogs® & News

Nearby

Snow Depth

Station Depth Elevation
No new snow has been reported.

Earthquake Activity

City Distance Mag. Time & Date
No recent earthquake activity has been reported nearby.
Minimum magnitude displayed is 2.5.

Coastal Water Temperatures

Place Temperature
No Stations Reporting

Nearby Weather Stations